sensor_id;sensor_type;location;lat;lon;timestamp;pressure;altitude;pressure_sealevel;temperature;humidity
34506;BME280;20748;42.632;23.198;2023-06-24T00:01:06;92134.88;;;19.55;99.33
34506;BME280;20748;42.632;23.198;2023-06-24T00:03:39;92129.38;;;19.44;100.00
34506;BME280;20748;42.632;23.198;2023-06-24T00:06:12;92133.22;;;19.47;100.00
34506;BME280;20748;42.632;23.198;2023-06-24T00:08:50;92135.09;;;19.46;100.00
34506;BME280;20748;42.632;23.198;2023-06-24T00:11:22;92128.16;;;19.38;100.00
34506;BME280;20748;42.632;23.198;2023-06-24T00:13:55;92122.66;;;19.27;100.00
34506;BME280;20748;42.632;23.198;2023-06-24T00:16:27;92119.13;;;19.19;100.00
34506;BME280;20748;42.632;23.198;2023-06-24T00:19:00;92120.50;;;19.13;100.00
34506;BME280;20748;42.632;23.198;2023-06-24T00:21:34;92116.63;;;19.07;100.00
34506;BME280;20748;42.632;23.198;2023-06-24T00:24:09;92122.44;;;19.16;100.00
34506;BME280;20748;42.632;23.198;2023-06-24T00:26:41;92128.84;;;19.15;100.00
34506;BME280;20748;42.632;23.198;2023-06-24T00:29:14;92133.88;;;19.20;100.00
34506;BME280;20748;42.632;23.198;2023-06-24T00:31:47;92135.19;;;19.10;100.00
34506;BME280;20748;42.632;23.198;2023-06-24T00:34:20;92135.94;;;19.11;100.00
34506;BME280;20748;42.632;23.198;2023-06-24T00:36:54;92138.97;;;19.09;100.00
34506;BME280;20748;42.632;23.198;2023-06-24T00:39:27;92128.72;;;19.08;100.00
34506;BME280;20748;42.632;23.198;2023-06-24T00:41:59;92128.38;;;19.09;100.00
34506;BME280;20748;42.632;23.198;2023-06-24T00:44:32;92129.47;;;19.08;100.00
34506;BME280;20748;42.632;23.198;2023-06-24T00:47:06;92127.13;;;19.03;100.00
34506;BME280;20748;42.632;23.198;2023-06-24T00:49:39;92128.91;;;18.99;100.00
34506;BME280;20748;42.632;23.198;2023-06-24T00:52:12;92126.53;;;18.94;100.00
34506;BME280;20748;42.632;23.198;2023-06-24T00:54:47;92128.25;;;18.86;100.00
34506;BME280;20748;42.632;23.198;2023-06-24T00:57:21;92124.00;;;18.81;100.00
34506;BME280;20748;42.632;23.198;2023-06-24T00:59:56;92124.63;;;18.74;100.00
34506;BME280;20748;42.632;23.198;2023-06-24T01:02:30;92117.19;;;18.80;100.00
34506;BME280;20748;42.632;23.198;2023-06-24T01:05:05;92117.53;;;18.78;100.00
34506;BME280;20748;42.632;23.198;2023-06-24T01:07:41;92128.03;;;18.75;100.00
34506;BME280;20748;42.632;23.198;2023-06-24T01:10:13;92119.25;;;18.71;100.00
34506;BME280;20748;42.632;23.198;2023-06-24T01:12:46;92123.03;;;18.70;100.00
34506;BME280;20748;42.632;23.198;2023-06-24T01:15:18;92107.50;;;18.68;100.00
34506;BME280;20748;42.632;23.198;2023-06-24T01:17:57;92116.88;;;18.65;100.00
34506;BME280;20748;42.632;23.198;2023-06-24T01:20:41;92111.13;;;18.60;100.00
34506;BME280;20748;42.632;23.198;2023-06-24T01:23:42;92114.44;;;18.57;100.00
34506;BME280;20748;42.632;23.198;2023-06-24T01:30:04;92121.63;;;18.56;100.00
34506;BME280;20748;42.632;23.198;2023-06-24T01:32:45;92129.63;;;18.60;100.00
34506;BME280;20748;42.632;23.198;2023-06-24T01:35:26;92130.72;;;18.59;100.00
34506;BME280;20748;42.632;23.198;2023-06-24T01:38:05;92135.91;;;18.55;100.00
34506;BME280;20748;42.632;23.198;2023-06-24T01:40:41;92142.84;;;18.44;100.00
34506;BME280;20748;42.632;23.198;2023-06-24T01:43:15;92139.03;;;18.41;100.00
34506;BME280;20748;42.632;23.198;2023-06-24T01:45:51;92138.16;;;18.37;100.00
34506;BME280;20748;42.632;23.198;2023-06-24T01:48:28;92153.59;;;18.35;100.00
34506;BME280;20748;42.632;23.198;2023-06-24T01:51:06;92150.44;;;18.29;100.00
34506;BME280;20748;42.632;23.198;2023-06-24T01:53:44;92163.31;;;18.31;100.00
34506;BME280;20748;42.632;23.198;2023-06-24T01:56:21;92159.97;;;18.34;100.00
34506;BME280;20748;42.632;23.198;2023-06-24T01:58:56;92157.06;;;18.39;100.00
34506;BME280;20748;42.632;23.198;2023-06-24T02:01:32;92161.69;;;18.42;100.00
34506;BME280;20748;42.632;23.198;2023-06-24T02:04:08;92170.63;;;18.37;100.00
34506;BME280;20748;42.632;23.198;2023-06-24T02:06:41;92169.53;;;18.38;100.00
34506;BME280;20748;42.632;23.198;2023-06-24T02:09:15;92170.63;;;18.37;100.00
34506;BME280;20748;42.632;23.198;2023-06-24T02:11:50;92170.03;;;18.44;100.00
34506;BME280;20748;42.632;23.198;2023-06-24T02:14:23;92172.50;;;18.37;100.00
34506;BME280;20748;42.632;23.198;2023-06-24T02:17:00;92173.53;;;18.32;100.00
34506;BME280;20748;42.632;23.198;2023-06-24T02:19:34;92166.47;;;18.20;100.00
34506;BME280;20748;42.632;23.198;2023-06-24T02:22:07;92182.84;;;18.26;100.00
34506;BME280;20748;42.632;23.198;2023-06-24T02:24:42;92197.72;;;18.18;100.00
34506;BME280;20748;42.632;23.198;2023-06-24T02:27:15;92192.69;;;18.13;100.00
34506;BME280;20748;42.632;23.198;2023-06-24T02:29:48;92202.56;;;18.16;100.00
34506;BME280;20748;42.632;23.198;2023-06-24T02:32:23;92217.03;;;18.22;100.00
34506;BME280;20748;42.632;23.198;2023-06-24T02:34:58;92218.84;;;18.18;100.00
34506;BME280;20748;42.632;23.198;2023-06-24T02:37:33;92224.06;;;18.15;100.00
34506;BME280;20748;42.632;23.198;2023-06-24T02:40:07;92213.91;;;18.17;100.00
34506;BME280;20748;42.632;23.198;2023-06-24T02:42:41;92216.53;;;18.17;100.00
34506;BME280;20748;42.632;23.198;2023-06-24T02:45:14;92201.22;;;18.22;100.00
34506;BME280;20748;42.632;23.198;2023-06-24T02:47:48;92204.28;;;18.24;100.00
34506;BME280;20748;42.632;23.198;2023-06-24T02:50:22;92211.78;;;18.22;100.00
34506;BME280;20748;42.632;23.198;2023-06-24T02:52:56;92207.34;;;18.10;100.00
34506;BME280;20748;42.632;23.198;2023-06-24T02:55:33;92203.94;;;18.10;100.00
34506;BME280;20748;42.632;23.198;2023-06-24T02:58:09;92204.28;;;18.08;100.00
34506;BME280;20748;42.632;23.198;2023-06-24T03:00:54;92211.19;;;18.13;100.00
34506;BME280;20748;42.632;23.198;2023-06-24T03:03:41;92207.44;;;18.14;100.00
34506;BME280;20748;42.632;23.198;2023-06-24T03:06:17;92206.22;;;18.11;100.00
34506;BME280;20748;42.632;23.198;2023-06-24T03:08:50;92200.88;;;18.08;100.00
34506;BME280;20748;42.632;23.198;2023-06-24T03:11:27;92184.69;;;18.09;100.00
34506;BME280;20748;42.632;23.198;2023-06-24T03:14:02;92187.75;;;18.11;100.00
34506;BME280;20748;42.632;23.198;2023-06-24T03:16:41;92187.75;;;18.11;100.00
34506;BME280;20748;42.632;23.198;2023-06-24T03:19:21;92201.66;;;18.08;100.00
34506;BME280;20748;42.632;23.198;2023-06-24T03:21:55;92202.41;;;18.09;100.00
34506;BME280;20748;42.632;23.198;2023-06-24T03:24:28;92203.19;;;18.09;100.00
34506;BME280;20748;42.632;23.198;2023-06-24T03:27:01;92211.75;;;18.06;100.00
34506;BME280;20748;42.632;23.198;2023-06-24T03:29:42;92213.28;;;18.07;100.00
34506;BME280;20748;42.632;23.198;2023-06-24T03:32:17;92217.50;;;18.08;100.00
34506;BME280;20748;42.632;23.198;2023-06-24T03:34:51;92209.81;;;18.19;100.00
34506;BME280;20748;42.632;23.198;2023-06-24T03:37:24;92214.56;;;18.14;100.00
34506;BME280;20748;42.632;23.198;2023-06-24T03:39:57;92216.53;;;18.17;100.00
34506;BME280;20748;42.632;23.198;2023-06-24T03:42:29;92221.09;;;18.04;100.00
34506;BME280;20748;42.632;23.198;2023-06-24T03:45:02;92227.16;;;18.04;100.00
34506;BME280;20748;42.632;23.198;2023-06-24T03:47:36;92227.16;;;18.04;100.00
34506;BME280;20748;42.632;23.198;2023-06-24T03:50:10;92231.53;;;18.13;100.00
34506;BME280;20748;42.632;23.198;2023-06-24T03:52:43;92231.53;;;18.13;100.00
34506;BME280;20748;42.632;23.198;2023-06-24T03:55:16;92227.78;;;18.14;100.00
34506;BME280;20748;42.632;23.198;2023-06-24T03:57:49;92230.53;;;18.17;100.00
34506;BME280;20748;42.632;23.198;2023-06-24T04:00:22;92227.88;;;18.17;100.00
34506;BME280;20748;42.632;23.198;2023-06-24T04:02:56;92229.41;;;18.18;100.00
34506;BME280;20748;42.632;23.198;2023-06-24T04:05:33;92224.13;;;18.18;100.00
34506;BME280;20748;42.632;23.198;2023-06-24T04:08:06;92217.41;;;18.21;100.00
34506;BME280;20748;42.632;23.198;2023-06-24T04:10:39;92224.63;;;18.24;100.00
34506;BME280;20748;42.632;23.198;2023-06-24T04:13:16;92228.31;;;18.35;100.00
34506;BME280;20748;42.632;23.198;2023-06-24T04:15:50;92224.31;;;18.42;100.00
34506;BME280;20748;42.632;23.198;2023-06-24T04:18:22;92226.19;;;18.41;100.00
34506;BME280;20748;42.632;23.198;2023-06-24T04:20:55;92221.25;;;18.40;100.00
34506;BME280;20748;42.632;23.198;2023-06-24T04:23:28;92224.38;;;18.45;100.00
34506;BME280;20748;42.632;23.198;2023-06-24T04:26:01;92214.66;;;18.49;100.00
34506;BME280;20748;42.632;23.198;2023-06-24T04:28:33;92205.38;;;18.56;100.00
34506;BME280;20748;42.632;23.198;2023-06-24T04:31:06;92206.97;;;18.60;100.00
34506;BME280;20748;42.632;23.198;2023-06-24T04:33:38;92214.41;;;18.71;100.00
34506;BME280;20748;42.632;23.198;2023-06-24T04:36:11;92212.34;;;18.80;100.00
34506;BME280;20748;42.632;23.198;2023-06-24T04:38:44;92211.63;;;18.83;100.00
34506;BME280;20748;42.632;23.198;2023-06-24T04:41:24;92213.59;;;18.86;100.00
34506;BME280;20748;42.632;23.198;2023-06-24T04:43:57;92211.91;;;18.94;100.00
34506;BME280;20748;42.632;23.198;2023-06-24T04:46:29;92212.38;;;19.00;100.00
34506;BME280;20748;42.632;23.198;2023-06-24T04:49:02;92220.91;;;19.09;100.00
34506;BME280;20748;42.632;23.198;2023-06-24T04:51:35;92226.34;;;19.16;100.00
34506;BME280;20748;42.632;23.198;2023-06-24T04:54:09;92231.78;;;19.24;100.00
34506;BME280;20748;42.632;23.198;2023-06-24T04:56:41;92231.38;;;19.22;100.00
34506;BME280;20748;42.632;23.198;2023-06-24T04:59:14;92227.75;;;19.30;100.00
34506;BME280;20748;42.632;23.198;2023-06-24T05:01:47;92229.16;;;19.43;100.00
34506;BME280;20748;42.632;23.198;2023-06-24T05:04:19;92228.31;;;19.59;100.00
34506;BME280;20748;42.632;23.198;2023-06-24T05:06:51;92227.78;;;19.69;100.00
34506;BME280;20748;42.632;23.198;2023-06-24T05:09:25;92235.56;;;19.82;100.00
34506;BME280;20748;42.632;23.198;2023-06-24T05:11:57;92231.97;;;19.94;100.00
34506;BME280;20748;42.632;23.198;2023-06-24T05:14:29;92233.81;;;20.09;100.00
34506;BME280;20748;42.632;23.198;2023-06-24T05:17:02;92240.44;;;20.23;100.00
34506;BME280;20748;42.632;23.198;2023-06-24T05:19:35;92229.00;;;20.38;100.00
34506;BME280;20748;42.632;23.198;2023-06-24T05:22:08;92236.34;;;20.49;100.00
34506;BME280;20748;42.632;23.198;2023-06-24T05:24:41;92227.44;;;20.61;100.00
34506;BME280;20748;42.632;23.198;2023-06-24T05:27:14;92224.97;;;20.72;100.00
34506;BME280;20748;42.632;23.198;2023-06-24T05:29:46;92221.84;;;20.89;100.00
34506;BME280;20748;42.632;23.198;2023-06-24T05:32:19;92223.16;;;21.03;100.00
34506;BME280;20748;42.632;23.198;2023-06-24T05:34:52;92222.22;;;21.18;100.00
34506;BME280;20748;42.632;23.198;2023-06-24T05:37:24;92225.44;;;21.35;100.00
34506;BME280;20748;42.632;23.198;2023-06-24T05:39:57;92227.94;;;21.51;100.00
34506;BME280;20748;42.632;23.198;2023-06-24T05:42:33;92218.66;;;21.68;99.54
34506;BME280;20748;42.632;23.198;2023-06-24T05:45:06;92214.34;;;21.91;97.68
34506;BME280;20748;42.632;23.198;2023-06-24T05:47:39;92219.44;;;22.07;95.91
34506;BME280;20748;42.632;23.198;2023-06-24T05:50:11;92215.03;;;22.22;95.77
34506;BME280;20748;42.632;23.198;2023-06-24T05:52:43;92215.56;;;22.42;92.69
34506;BME280;20748;42.632;23.198;2023-06-24T05:55:16;92215.66;;;22.49;93.40
34506;BME280;20748;42.632;23.198;2023-06-24T05:57:49;92216.56;;;22.64;94.21
34506;BME280;20748;42.632;23.198;2023-06-24T06:00:21;92209.06;;;22.81;91.41
34506;BME280;20748;42.632;23.198;2023-06-24T06:02:53;92203.84;;;22.99;90.90
34506;BME280;20748;42.632;23.198;2023-06-24T06:05:26;92210.03;;;23.14;91.51
34506;BME280;20748;42.632;23.198;2023-06-24T06:07:58;92208.16;;;23.18;91.56
34506;BME280;20748;42.632;23.198;2023-06-24T06:10:31;92205.91;;;23.28;90.44
34506;BME280;20748;42.632;23.198;2023-06-24T06:13:04;92207.16;;;23.41;90.20
34506;BME280;20748;42.632;23.198;2023-06-24T06:15:36;92210.19;;;23.40;89.07
34506;BME280;20748;42.632;23.198;2023-06-24T06:18:09;92215.53;;;23.54;88.86
34506;BME280;20748;42.632;23.198;2023-06-24T06:20:41;92211.78;;;23.55;88.38
34506;BME280;20748;42.632;23.198;2023-06-24T06:23:15;92209.88;;;23.59;88.62
34506;BME280;20748;42.632;23.198;2023-06-24T06:25:48;92206.50;;;23.77;88.57
34506;BME280;20748;42.632;23.198;2023-06-24T06:28:20;92220.59;;;23.85;88.60
34506;BME280;20748;42.632;23.198;2023-06-24T06:30:53;92219.09;;;23.95;86.66
34506;BME280;20748;42.632;23.198;2023-06-24T06:33:25;92230.53;;;23.99;86.60
34506;BME280;20748;42.632;23.198;2023-06-24T06:35:58;92218.03;;;24.18;86.25
34506;BME280;20748;42.632;23.198;2023-06-24T06:38:32;92226.81;;;24.29;85.31
34506;BME280;20748;42.632;23.198;2023-06-24T06:41:05;92224.94;;;24.40;84.20
34506;BME280;20748;42.632;23.198;2023-06-24T06:43:37;92229.13;;;24.45;83.74
34506;BME280;20748;42.632;23.198;2023-06-24T06:46:10;92226.84;;;24.51;82.92
34506;BME280;20748;42.632;23.198;2023-06-24T06:48:42;92231.03;;;24.52;82.31
34506;BME280;20748;42.632;23.198;2023-06-24T06:53:58;92229.88;;;24.64;82.48
34506;BME280;20748;42.632;23.198;2023-06-24T06:56:31;92228.75;;;24.79;80.76
34506;BME280;20748;42.632;23.198;2023-06-24T06:59:03;92231.44;;;24.87;80.73
34506;BME280;20748;42.632;23.198;2023-06-24T07:01:36;92227.59;;;24.88;81.65
34506;BME280;20748;42.632;23.198;2023-06-24T07:04:08;92235.22;;;25.04;80.13
34506;BME280;20748;42.632;23.198;2023-06-24T07:06:40;92231.78;;;25.07;79.17
34506;BME280;20748;42.632;23.198;2023-06-24T07:09:13;92244.38;;;25.14;79.45
34506;BME280;20748;42.632;23.198;2023-06-24T07:11:46;92239.03;;;25.17;80.17
34506;BME280;20748;42.632;23.198;2023-06-24T07:14:18;92237.84;;;25.26;78.60
34506;BME280;20748;42.632;23.198;2023-06-24T07:16:51;92229.44;;;25.38;79.00
34506;BME280;20748;42.632;23.198;2023-06-24T07:19:23;92237.06;;;25.47;77.53
34506;BME280;20748;42.632;23.198;2023-06-24T07:21:55;92235.50;;;25.50;76.87
34506;BME280;20748;42.632;23.198;2023-06-24T07:24:28;92235.13;;;25.51;79.85
34506;BME280;20748;42.632;23.198;2023-06-24T07:27:01;92237.03;;;25.62;78.33
34506;BME280;20748;42.632;23.198;2023-06-24T07:29:33;92227.41;;;25.79;78.24
34506;BME280;20748;42.632;23.198;2023-06-24T07:32:07;92232.69;;;25.93;77.78
34506;BME280;20748;42.632;23.198;2023-06-24T07:34:39;92228.03;;;26.08;75.93
34506;BME280;20748;42.632;23.198;2023-06-24T07:37:12;92232.94;;;26.17;77.25
34506;BME280;20748;42.632;23.198;2023-06-24T07:39:56;92229.47;;;26.20;74.57
34506;BME280;20748;42.632;23.198;2023-06-24T07:42:29;92238.19;;;26.35;73.85
34506;BME280;20748;42.632;23.198;2023-06-24T07:45:03;92235.94;;;26.34;72.95
34506;BME280;20748;42.632;23.198;2023-06-24T07:47:36;92226.63;;;26.53;76.12
34506;BME280;20748;42.632;23.198;2023-06-24T07:50:08;92227.28;;;26.64;73.42
34506;BME280;20748;42.632;23.198;2023-06-24T07:52:42;92229.94;;;26.72;73.19
34506;BME280;20748;42.632;23.198;2023-06-24T07:55:15;92243.69;;;26.70;72.44
34506;BME280;20748;42.632;23.198;2023-06-24T07:57:48;92248.28;;;26.70;72.57
34506;BME280;20748;42.632;23.198;2023-06-24T08:00:20;92243.34;;;26.64;73.96
34506;BME280;20748;42.632;23.198;2023-06-24T08:02:53;92235.91;;;26.90;73.79
34506;BME280;20748;42.632;23.198;2023-06-24T08:05:27;92246.59;;;26.94;71.08
34506;BME280;20748;42.632;23.198;2023-06-24T08:07:59;92241.88;;;27.09;71.08
34506;BME280;20748;42.632;23.198;2023-06-24T08:10:32;92245.53;;;27.26;71.50
34506;BME280;20748;42.632;23.198;2023-06-24T08:13:05;92244.22;;;27.42;68.85
34506;BME280;20748;42.632;23.198;2023-06-24T08:15:37;92238.47;;;27.43;67.88
34506;BME280;20748;42.632;23.198;2023-06-24T08:18:13;92231.81;;;27.59;70.46
34506;BME280;20748;42.632;23.198;2023-06-24T08:20:46;92241.47;;;27.49;68.84
34506;BME280;20748;42.632;23.198;2023-06-24T08:23:18;92241.03;;;27.54;67.57
34506;BME280;20748;42.632;23.198;2023-06-24T08:25:50;92244.28;;;27.73;68.03
34506;BME280;20748;42.632;23.198;2023-06-24T08:28:33;92242.47;;;27.97;66.82
34506;BME280;20748;42.632;23.198;2023-06-24T08:31:05;92241.00;;;27.93;64.89
34506;BME280;20748;42.632;23.198;2023-06-24T08:33:38;92236.50;;;27.86;64.50
34506;BME280;20748;42.632;23.198;2023-06-24T08:36:10;92227.94;;;27.95;63.96
34506;BME280;20748;42.632;23.198;2023-06-24T08:38:43;92231.59;;;28.08;66.97
34506;BME280;20748;42.632;23.198;2023-06-24T08:41:15;92226.19;;;28.12;67.91
34506;BME280;20748;42.632;23.198;2023-06-24T08:43:48;92226.50;;;28.18;64.61
34506;BME280;20748;42.632;23.198;2023-06-24T08:46:21;92222.81;;;28.08;63.54
34506;BME280;20748;42.632;23.198;2023-06-24T08:49:01;92214.53;;;28.26;63.65
34506;BME280;20748;42.632;23.198;2023-06-24T08:51:35;92215.00;;;28.17;63.56
34506;BME280;20748;42.632;23.198;2023-06-24T08:54:11;92211.13;;;28.25;64.56
34506;BME280;20748;42.632;23.198;2023-06-24T08:56:44;92219.00;;;28.36;63.63
34506;BME280;20748;42.632;23.198;2023-06-24T08:59:17;92209.38;;;28.39;62.26
34506;BME280;20748;42.632;23.198;2023-06-24T09:01:51;92218.00;;;28.26;63.30
34506;BME280;20748;42.632;23.198;2023-06-24T09:04:24;92218.94;;;28.40;64.91
34506;BME280;20748;42.632;23.198;2023-06-24T09:06:56;92210.09;;;28.43;64.74
34506;BME280;20748;42.632;23.198;2023-06-24T09:09:29;92212.25;;;28.52;63.75
34506;BME280;20748;42.632;23.198;2023-06-24T09:12:01;92216.28;;;28.64;63.64
34506;BME280;20748;42.632;23.198;2023-06-24T09:14:34;92208.94;;;28.68;63.83
34506;BME280;20748;42.632;23.198;2023-06-24T09:17:08;92214.38;;;28.64;62.04
34506;BME280;20748;42.632;23.198;2023-06-24T09:19:41;92216.34;;;28.84;64.50
34506;BME280;20748;42.632;23.198;2023-06-24T09:22:14;92215.63;;;28.80;63.88
34506;BME280;20748;42.632;23.198;2023-06-24T09:24:49;92210.19;;;28.87;62.52
34506;BME280;20748;42.632;23.198;2023-06-24T09:27:21;92218.47;;;28.97;61.79
34506;BME280;20748;42.632;23.198;2023-06-24T09:29:56;92209.69;;;28.92;62.00
34506;BME280;20748;42.632;23.198;2023-06-24T09:32:29;92215.41;;;29.18;65.78
34506;BME280;20748;42.632;23.198;2023-06-24T09:35:03;92215.53;;;29.11;62.34
34506;BME280;20748;42.632;23.198;2023-06-24T09:37:38;92210.59;;;29.10;63.24
34506;BME280;20748;42.632;23.198;2023-06-24T09:40:11;92211.97;;;29.18;60.14
34506;BME280;20748;42.632;23.198;2023-06-24T09:42:50;92202.13;;;29.31;61.58
34506;BME280;20748;42.632;23.198;2023-06-24T09:45:26;92212.47;;;29.33;60.28
34506;BME280;20748;42.632;23.198;2023-06-24T09:47:58;92207.56;;;29.28;58.32
34506;BME280;20748;42.632;23.198;2023-06-24T09:50:30;92210.53;;;29.33;59.31
34506;BME280;20748;42.632;23.198;2023-06-24T09:53:04;92209.16;;;29.25;59.17
34506;BME280;20748;42.632;23.198;2023-06-24T09:55:38;92207.44;;;29.15;59.03
34506;BME280;20748;42.632;23.198;2023-06-24T09:58:16;92196.28;;;29.16;59.73
34506;BME280;20748;42.632;23.198;2023-06-24T10:00:51;92191.09;;;29.26;59.66
34506;BME280;20748;42.632;23.198;2023-06-24T10:03:24;92199.66;;;29.41;55.75
34506;BME280;20748;42.632;23.198;2023-06-24T10:05:57;92196.66;;;29.59;57.95
34506;BME280;20748;42.632;23.198;2023-06-24T10:08:30;92195.38;;;29.84;55.94
34506;BME280;20748;42.632;23.198;2023-06-24T10:11:03;92192.00;;;29.80;54.95
34506;BME280;20748;42.632;23.198;2023-06-24T10:13:35;92183.59;;;29.78;54.52
34506;BME280;20748;42.632;23.198;2023-06-24T10:16:09;92189.81;;;29.74;54.67
34506;BME280;20748;42.632;23.198;2023-06-24T10:18:43;92170.03;;;29.65;56.17
34506;BME280;20748;42.632;23.198;2023-06-24T10:21:16;92172.09;;;29.77;54.31
34506;BME280;20748;42.632;23.198;2023-06-24T10:23:52;92151.16;;;29.68;53.61
34506;BME280;20748;42.632;23.198;2023-06-24T10:26:26;92166.19;;;29.66;53.08
34506;BME280;20748;42.632;23.198;2023-06-24T10:29:10;92164.94;;;29.70;53.73
34506;BME280;20748;42.632;23.198;2023-06-24T10:31:52;92152.31;;;29.67;55.58
34506;BME280;20748;42.632;23.198;2023-06-24T10:34:39;92151.78;;;29.93;55.55
34506;BME280;20748;42.632;23.198;2023-06-24T10:37:14;92139.63;;;29.88;54.53
34506;BME280;20748;42.632;23.198;2023-06-24T10:39:48;92145.50;;;29.99;52.07
34506;BME280;20748;42.632;23.198;2023-06-24T10:42:31;92140.84;;;29.83;53.15
34506;BME280;20748;42.632;23.198;2023-06-24T10:45:18;92133.31;;;29.95;53.83
34506;BME280;20748;42.632;23.198;2023-06-24T10:47:52;92133.66;;;29.97;54.37
34506;BME280;20748;42.632;23.198;2023-06-24T10:50:25;92137.59;;;29.92;53.01
34506;BME280;20748;42.632;23.198;2023-06-24T10:52:58;92131.47;;;29.92;50.31
34506;BME280;20748;42.632;23.198;2023-06-24T10:55:33;92129.94;;;30.07;50.69
34506;BME280;20748;42.632;23.198;2023-06-24T10:58:08;92133.88;;;30.39;51.21
34506;BME280;20748;42.632;23.198;2023-06-24T11:00:44;92129.81;;;30.64;53.42
34506;BME280;20748;42.632;23.198;2023-06-24T11:03:18;92131.31;;;30.65;49.02
34506;BME280;20748;42.632;23.198;2023-06-24T11:05:51;92134.97;;;30.59;49.04
34506;BME280;20748;42.632;23.198;2023-06-24T11:08:23;92136.28;;;30.67;52.97
34506;BME280;20748;42.632;23.198;2023-06-24T11:10:56;92131.41;;;30.62;47.35
34506;BME280;20748;42.632;23.198;2023-06-24T11:13:33;92136.19;;;30.87;48.22
34506;BME280;20748;42.632;23.198;2023-06-24T11:16:05;92132.56;;;30.94;46.88
34506;BME280;20748;42.632;23.198;2023-06-24T11:18:38;92127.44;;;30.83;45.88
34506;BME280;20748;42.632;23.198;2023-06-24T11:21:11;92122.41;;;31.15;46.05
34506;BME280;20748;42.632;23.198;2023-06-24T11:23:43;92116.44;;;31.37;46.17
34506;BME280;20748;42.632;23.198;2023-06-24T11:26:16;92111.16;;;31.46;46.57
34506;BME280;20748;42.632;23.198;2023-06-24T11:28:48;92126.16;;;31.34;44.66
34506;BME280;20748;42.632;23.198;2023-06-24T11:31:24;92122.69;;;31.04;47.25
34506;BME280;20748;42.632;23.198;2023-06-24T11:33:58;92116.16;;;30.88;47.66
34506;BME280;20748;42.632;23.198;2023-06-24T11:36:30;92129.81;;;30.81;46.82
34506;BME280;20748;42.632;23.198;2023-06-24T11:39:03;92126.94;;;30.88;45.28
34506;BME280;20748;42.632;23.198;2023-06-24T11:41:37;92120.19;;;30.97;45.27
34506;BME280;20748;42.632;23.198;2023-06-24T11:44:09;92111.56;;;31.02;46.19
34506;BME280;20748;42.632;23.198;2023-06-24T11:46:42;92112.44;;;30.99;45.94
34506;BME280;20748;42.632;23.198;2023-06-24T11:49:15;92106.31;;;30.81;45.71
34506;BME280;20748;42.632;23.198;2023-06-24T11:51:49;92097.41;;;30.85;46.85
34506;BME280;20748;42.632;23.198;2023-06-24T11:54:22;92112.47;;;30.82;46.10
34506;BME280;20748;42.632;23.198;2023-06-24T11:56:55;92103.09;;;30.87;45.04
34506;BME280;20748;42.632;23.198;2023-06-24T11:59:28;92095.09;;;31.00;45.52
34506;BME280;20748;42.632;23.198;2023-06-24T12:02:01;92093.56;;;30.99;43.69
34506;BME280;20748;42.632;23.198;2023-06-24T12:04:36;92080.88;;;30.70;44.00
34506;BME280;20748;42.632;23.198;2023-06-24T12:07:09;92065.03;;;30.55;44.96
34506;BME280;20748;42.632;23.198;2023-06-24T12:09:41;92054.63;;;30.57;44.52
34506;BME280;20748;42.632;23.198;2023-06-24T12:12:14;92063.28;;;30.65;49.32
34506;BME280;20748;42.632;23.198;2023-06-24T12:14:46;92066.63;;;30.69;46.26
34506;BME280;20748;42.632;23.198;2023-06-24T12:17:19;92072.38;;;30.71;46.72
34506;BME280;20748;42.632;23.198;2023-06-24T12:19:52;92067.97;;;30.77;47.09
34506;BME280;20748;42.632;23.198;2023-06-24T12:22:24;92066.38;;;30.80;47.85
34506;BME280;20748;42.632;23.198;2023-06-24T12:24:56;92072.50;;;30.34;46.53
34506;BME280;20748;42.632;23.198;2023-06-24T12:27:29;92076.59;;;30.39;48.00
34506;BME280;20748;42.632;23.198;2023-06-24T12:30:01;92074.41;;;30.34;50.71
34506;BME280;20748;42.632;23.198;2023-06-24T12:32:36;92080.28;;;30.28;50.52
34506;BME280;20748;42.632;23.198;2023-06-24T12:35:09;92080.53;;;30.01;48.57
34506;BME280;20748;42.632;23.198;2023-06-24T12:37:42;92094.06;;;29.97;50.31
34506;BME280;20748;42.632;23.198;2023-06-24T12:40:18;92094.66;;;30.05;51.81
34506;BME280;20748;42.632;23.198;2023-06-24T12:42:50;92111.22;;;30.04;53.01
34506;BME280;20748;42.632;23.198;2023-06-24T12:45:23;92122.41;;;30.02;54.44
34506;BME280;20748;42.632;23.198;2023-06-24T12:47:55;92136.00;;;29.95;56.32
34506;BME280;20748;42.632;23.198;2023-06-24T12:50:28;92145.97;;;29.78;57.19
34506;BME280;20748;42.632;23.198;2023-06-24T12:53:03;92142.97;;;29.55;57.71
34506;BME280;20748;42.632;23.198;2023-06-24T12:55:35;92142.03;;;29.42;56.23
34506;BME280;20748;42.632;23.198;2023-06-24T12:58:08;92132.06;;;29.22;59.47
34506;BME280;20748;42.632;23.198;2023-06-24T13:00:40;92141.72;;;29.19;59.78
34506;BME280;20748;42.632;23.198;2023-06-24T13:03:12;92129.13;;;29.16;58.63
34506;BME280;20748;42.632;23.198;2023-06-24T13:05:46;92123.31;;;29.18;60.04
34506;BME280;20748;42.632;23.198;2023-06-24T13:08:18;92112.31;;;29.12;60.34
34506;BME280;20748;42.632;23.198;2023-06-24T13:10:50;92105.06;;;29.09;59.35
34506;BME280;20748;42.632;23.198;2023-06-24T13:13:23;92098.97;;;29.08;57.95
34506;BME280;20748;42.632;23.198;2023-06-24T13:15:55;92090.13;;;29.08;61.80
34506;BME280;20748;42.632;23.198;2023-06-24T13:18:28;92090.28;;;29.01;62.43
34506;BME280;20748;42.632;23.198;2023-06-24T13:21:01;92081.53;;;28.97;63.90
34506;BME280;20748;42.632;23.198;2023-06-24T13:23:48;92090.47;;;28.46;67.41
34506;BME280;20748;42.632;23.198;2023-06-24T13:26:20;92073.56;;;27.97;67.07